createdAt,value
2018-06-10T00:00:12.749Z,16.70
2018-06-10T00:01:12.629Z,16.82
2018-06-10T00:02:12.545Z,16.77
2018-06-10T00:03:12.453Z,16.85
2018-06-10T00:04:12.366Z,16.80
2018-06-10T00:05:12.316Z,16.77
2018-06-10T00:06:12.188Z,16.72
2018-06-10T00:07:12.101Z,16.77
2018-06-10T00:08:12.013Z,16.67
2018-06-10T00:09:11.924Z,16.75
2018-06-10T00:10:11.872Z,16.67
2018-06-10T00:11:11.749Z,16.72
2018-06-10T00:12:11.660Z,16.69
2018-06-10T00:13:11.574Z,16.72
2018-06-10T00:14:11.485Z,16.69
2018-06-10T00:15:11.429Z,16.75
2018-06-10T00:16:11.309Z,16.66
2018-06-10T00:17:11.218Z,16.72
2018-06-10T00:18:11.132Z,16.67
2018-06-10T00:19:11.040Z,16.65
2018-06-10T00:20:10.984Z,16.70
2018-06-10T00:21:10.866Z,16.77
2018-06-10T00:22:10.779Z,16.70
2018-06-10T00:23:10.691Z,16.65
2018-06-10T00:24:10.604Z,16.65
2018-06-10T00:25:10.518Z,16.70
2018-06-10T00:26:10.464Z,16.66
2018-06-10T00:27:10.338Z,16.67
2018-06-10T00:28:10.250Z,16.57
2018-06-10T00:29:10.159Z,16.66
2018-06-10T00:30:10.072Z,16.62
2018-06-10T00:31:10.025Z,16.52
2018-06-10T00:32:09.897Z,16.50
2018-06-10T00:33:09.810Z,16.47
2018-06-10T00:34:09.717Z,16.60
2018-06-10T00:35:09.633Z,16.60
2018-06-10T00:36:09.571Z,16.59
2018-06-10T00:37:09.455Z,16.55
2018-06-10T00:38:09.368Z,16.55
2018-06-10T00:39:09.286Z,16.59
2018-06-10T00:40:09.587Z,16.65
2018-06-10T00:41:09.140Z,16.60
2018-06-10T00:42:09.012Z,16.69
2018-06-10T00:43:08.926Z,16.62
2018-06-10T00:44:08.837Z,16.62
2018-06-10T00:45:08.748Z,16.67
2018-06-10T00:46:08.695Z,16.70
2018-06-10T00:47:08.677Z,16.70
2018-06-10T00:48:08.485Z,16.66
2018-06-10T00:49:08.395Z,16.62
2018-06-10T00:50:08.311Z,16.67
2018-06-10T00:51:08.257Z,16.59
2018-06-10T00:52:08.133Z,16.62
2018-06-10T00:53:08.045Z,16.63
2018-06-10T00:54:08.045Z,16.60
2018-06-10T00:55:07.867Z,16.55
2018-06-10T00:56:07.810Z,16.52
2018-06-10T00:57:07.690Z,16.50
2018-06-10T00:58:07.615Z,16.55
2018-06-10T00:59:07.516Z,16.54
2018-06-10T01:00:07.425Z,16.44
2018-06-10T01:01:07.462Z,16.47
2018-06-10T01:02:07.250Z,16.52
2018-06-10T01:03:07.160Z,16.48
2018-06-10T01:04:07.074Z,16.45
2018-06-10T01:05:06.984Z,16.45
2018-06-10T01:06:06.925Z,16.48
2018-06-10T01:07:06.898Z,16.30
2018-06-10T01:08:06.720Z,16.32
2018-06-10T01:09:06.699Z,16.32
2018-06-10T01:10:06.544Z,16.27
2018-06-10T01:11:06.483Z,16.30
2018-06-10T01:12:06.369Z,16.29
2018-06-10T01:13:06.277Z,16.29
2018-06-10T01:14:06.189Z,16.22
2018-06-10T01:15:06.103Z,16.22
2018-06-10T01:16:06.045Z,16.27
2018-06-10T01:17:05.925Z,16.26
2018-06-10T01:18:05.835Z,16.22
2018-06-10T01:19:05.749Z,16.25
2018-06-10T01:20:05.679Z,16.18
2018-06-10T01:21:05.607Z,16.23
2018-06-10T01:22:05.483Z,16.26
2018-06-10T01:23:05.394Z,16.08
2018-06-10T01:24:05.305Z,16.17
2018-06-10T01:25:05.217Z,16.14
2018-06-10T01:26:05.168Z,16.03
2018-06-10T01:27:05.041Z,16.11
2018-06-10T01:28:04.951Z,16.17
2018-06-10T01:29:04.864Z,16.11
2018-06-10T01:30:04.780Z,16.14
2018-06-10T01:31:04.717Z,16.14
2018-06-10T01:32:04.598Z,16.17
2018-06-10T01:33:04.512Z,16.25
2018-06-10T01:34:04.430Z,16.18
2018-06-10T01:35:04.333Z,16.23
2018-06-10T01:36:04.278Z,16.14
2018-06-10T01:37:04.161Z,16.22
2018-06-10T01:38:04.069Z,16.11
2018-06-10T01:39:03.980Z,16.06
2018-06-10T01:40:03.893Z,16.11
2018-06-10T01:41:03.837Z,16.14
2018-06-10T01:42:03.710Z,16.23
2018-06-10T01:43:03.625Z,16.16
2018-06-10T01:44:03.540Z,16.17
2018-06-10T01:45:03.452Z,16.22
2018-06-10T01:46:03.395Z,16.27
2018-06-10T01:47:03.270Z,16.17
2018-06-10T01:48:03.182Z,16.18
2018-06-10T01:49:03.093Z,16.11
2018-06-10T01:50:03.003Z,16.17
2018-06-10T01:51:02.954Z,16.18
2018-06-10T01:52:02.826Z,16.22
2018-06-10T01:53:02.741Z,16.29
2018-06-10T01:54:02.650Z,16.32
2018-06-10T01:55:02.566Z,16.29
2018-06-10T01:56:02.475Z,16.40
2018-06-10T01:57:02.417Z,16.32
2018-06-10T01:58:02.297Z,16.26
2018-06-10T01:59:02.208Z,16.32
2018-06-10T02:00:02.119Z,16.33
2018-06-10T02:01:02.033Z,16.32
2018-06-10T02:02:01.971Z,16.23
2018-06-10T02:03:01.851Z,16.23
2018-06-10T02:04:01.766Z,16.22
2018-06-10T02:05:01.677Z,16.22
2018-06-10T02:06:01.589Z,16.16
2018-06-10T02:07:01.530Z,16.23
2018-06-10T02:08:01.409Z,16.18
2018-06-10T02:09:01.325Z,16.22
2018-06-10T02:10:01.230Z,16.23
2018-06-10T02:11:01.144Z,16.17
2018-06-10T02:12:01.087Z,16.17
2018-06-10T02:13:00.968Z,16.16
2018-06-10T02:14:00.875Z,16.27
2018-06-10T02:15:00.787Z,16.27
2018-06-10T02:16:00.704Z,16.22
2018-06-10T02:17:00.645Z,16.17
2018-06-10T02:18:00.524Z,16.17
2018-06-10T02:19:00.433Z,16.11
2018-06-10T02:20:00.346Z,16.06
2018-06-10T02:21:00.258Z,16.16
2018-06-10T02:22:00.195Z,16.16
2018-06-10T02:23:00.081Z,16.13
2018-06-10T02:24:00.098Z,16.14
2018-06-10T02:24:59.900Z,16.22
2018-06-10T02:25:59.812Z,16.18
2018-06-10T02:26:59.754Z,16.22
2018-06-10T02:27:59.635Z,16.22
2018-06-10T02:28:59.549Z,16.17
2018-06-10T02:29:59.457Z,16.25
2018-06-10T02:30:59.369Z,16.25
2018-06-10T02:31:59.310Z,16.23
2018-06-10T02:32:59.194Z,16.23
2018-06-10T02:33:59.105Z,16.22
2018-06-10T02:34:59.021Z,16.26
2018-06-10T02:35:58.927Z,16.27
2018-06-10T02:36:58.874Z,16.27
2018-06-10T02:37:58.844Z,16.25
2018-06-10T02:38:58.658Z,16.18
2018-06-10T02:39:58.573Z,16.22
2018-06-10T02:40:58.484Z,16.14
2018-06-10T02:41:58.442Z,16.26
2018-06-10T02:42:58.305Z,16.26
2018-06-10T02:43:58.221Z,16.22
2018-06-10T02:44:58.235Z,16.27
2018-06-10T02:45:58.043Z,16.26
2018-06-10T02:46:57.986Z,16.23
2018-06-10T02:47:57.866Z,16.22
2018-06-10T02:48:57.785Z,16.16
2018-06-10T02:49:57.689Z,16.17
2018-06-10T02:50:57.603Z,16.22
2018-06-10T02:51:57.636Z,16.22
2018-06-10T02:52:57.422Z,16.14
2018-06-10T02:53:57.333Z,16.14
2018-06-10T02:54:57.245Z,16.23
2018-06-10T02:55:57.161Z,16.18
2018-06-10T02:56:57.104Z,16.18
2018-06-10T02:57:56.979Z,16.22
2018-06-10T02:58:56.978Z,16.18
2018-06-10T02:59:56.803Z,16.16
2018-06-10T03:00:56.717Z,16.22
2018-06-10T03:01:56.659Z,16.06
2018-06-10T03:02:56.538Z,16.17
2018-06-10T03:03:56.447Z,16.13
2018-06-10T03:04:56.362Z,16.14
2018-06-10T03:05:56.459Z,16.25
2018-06-10T03:06:56.217Z,16.18
2018-06-10T03:07:56.155Z,16.25
2018-06-10T03:08:56.010Z,16.17
2018-06-10T03:09:55.918Z,16.17
2018-06-10T03:10:55.831Z,16.16
2018-06-10T03:11:55.771Z,16.22
2018-06-10T03:12:55.744Z,16.18
2018-06-10T03:13:55.565Z,16.11
2018-06-10T03:14:55.477Z,16.07
2018-06-10T03:15:55.388Z,16.06
2018-06-10T03:16:55.331Z,16.07
2018-06-10T03:17:55.209Z,16.16
2018-06-10T03:18:55.123Z,16.16
2018-06-10T03:19:55.126Z,16.18
2018-06-10T03:20:54.947Z,16.18
2018-06-10T03:21:54.860Z,16.26
2018-06-10T03:22:54.800Z,16.32
2018-06-10T03:23:54.680Z,16.32
2018-06-10T03:24:54.592Z,16.34
2018-06-10T03:25:54.502Z,16.42
2018-06-10T03:26:54.490Z,16.50
2018-06-10T03:27:54.356Z,16.54
2018-06-10T03:28:54.237Z,16.51
2018-06-10T03:29:54.146Z,16.50
2018-06-10T03:30:54.061Z,16.50
2018-06-10T03:31:53.975Z,16.48
2018-06-10T03:32:53.920Z,16.50
2018-06-10T03:33:53.884Z,16.47
2018-06-10T03:34:53.710Z,16.57
2018-06-10T03:35:53.616Z,16.55
2018-06-10T03:36:53.535Z,16.63
2018-06-10T03:37:53.475Z,16.66
2018-06-10T03:38:53.352Z,16.65
2018-06-10T03:39:53.265Z,16.59
2018-06-10T03:40:53.268Z,16.65
2018-06-10T03:41:53.086Z,16.66
2018-06-10T03:42:53.029Z,16.57
2018-06-10T03:43:52.909Z,16.59
2018-06-10T03:44:52.819Z,16.57
2018-06-10T03:45:52.738Z,16.47
2018-06-10T03:46:52.645Z,16.45
2018-06-10T03:47:52.591Z,16.50
2018-06-10T03:48:52.465Z,16.52
2018-06-10T03:49:52.380Z,16.54
2018-06-10T03:50:52.293Z,16.50
2018-06-10T03:51:52.200Z,16.48
2018-06-10T03:52:52.144Z,16.45
2018-06-10T03:53:52.024Z,16.54
2018-06-10T03:54:51.940Z,16.54
2018-06-10T03:55:51.848Z,16.50
2018-06-10T03:56:51.761Z,16.52
2018-06-10T03:57:51.701Z,16.55
2018-06-10T03:58:51.588Z,16.45
2018-06-10T03:59:51.495Z,16.45
2018-06-10T04:00:51.407Z,16.34
2018-06-10T04:01:51.321Z,16.36
2018-06-10T04:02:51.259Z,16.47
2018-06-10T04:03:51.142Z,16.42
2018-06-10T04:04:51.054Z,16.45
2018-06-10T04:05:50.966Z,16.47
2018-06-10T04:06:50.878Z,16.54
2018-06-10T04:07:50.823Z,16.54
2018-06-10T04:08:50.699Z,16.51
2018-06-10T04:09:50.615Z,16.54
2018-06-10T04:10:50.526Z,16.50
2018-06-10T04:11:50.436Z,16.62
2018-06-10T04:12:50.382Z,16.59
2018-06-10T04:13:50.261Z,16.72
2018-06-10T04:14:50.171Z,16.69
2018-06-10T04:15:50.088Z,16.66
2018-06-10T04:16:49.998Z,16.75
2018-06-10T04:17:49.938Z,16.69
2018-06-10T04:18:49.820Z,16.82
2018-06-10T04:19:49.732Z,16.82
2018-06-10T04:20:49.647Z,16.87
2018-06-10T04:21:49.555Z,16.78
2018-06-10T04:22:49.499Z,16.73
2018-06-10T04:23:49.383Z,16.84
2018-06-10T04:24:49.289Z,16.82
2018-06-10T04:25:49.205Z,16.78
2018-06-10T04:26:49.116Z,16.87
2018-06-10T04:27:49.062Z,16.88
2018-06-10T04:28:48.942Z,16.82
2018-06-10T04:29:48.855Z,16.88
2018-06-10T04:30:48.762Z,16.91
2018-06-10T04:31:48.691Z,16.78
2018-06-10T04:32:48.622Z,16.92
2018-06-10T04:33:48.502Z,16.92
2018-06-10T04:34:48.418Z,16.84
2018-06-10T04:35:48.325Z,16.99
2018-06-10T04:36:48.237Z,17.00
2018-06-10T04:37:48.183Z,16.88
2018-06-10T04:38:48.062Z,16.88
2018-06-10T04:39:47.974Z,16.88
2018-06-10T04:40:47.888Z,16.92
2018-06-10T04:41:47.798Z,16.92
2018-06-10T04:42:48.651Z,16.91
2018-06-10T04:43:47.623Z,16.90
2018-06-10T04:44:47.536Z,16.98
2018-06-10T04:45:47.447Z,16.91
2018-06-10T04:46:47.361Z,16.91
2018-06-10T04:47:47.302Z,16.90
2018-06-10T04:48:47.185Z,16.91
2018-06-10T04:49:47.098Z,16.96
2018-06-10T04:50:47.009Z,16.92
2018-06-10T04:51:46.924Z,16.91
2018-06-10T04:52:46.836Z,17.02
2018-06-10T04:53:46.778Z,17.02
2018-06-10T04:54:46.658Z,17.07
2018-06-10T04:55:46.571Z,17.07
2018-06-10T04:56:46.484Z,17.06
2018-06-10T04:57:46.397Z,17.06
2018-06-10T04:58:46.337Z,17.06
2018-06-10T04:59:46.217Z,17.15
2018-06-10T05:00:46.132Z,17.22
2018-06-10T05:01:46.043Z,17.25
2018-06-10T05:02:45.955Z,17.27
2018-06-10T05:03:45.974Z,17.21
2018-06-10T05:04:45.779Z,17.22
2018-06-10T05:05:45.693Z,17.20
2018-06-10T05:06:45.604Z,17.24
2018-06-10T05:07:45.521Z,17.25
2018-06-10T05:08:45.463Z,17.33
2018-06-10T05:09:45.339Z,17.38
2018-06-10T05:10:45.251Z,17.42
2018-06-10T05:11:45.168Z,17.53
2018-06-10T05:12:45.080Z,17.60
2018-06-10T05:13:45.023Z,17.66
2018-06-10T05:14:44.902Z,17.71
2018-06-10T05:15:44.818Z,17.68
2018-06-10T05:16:44.728Z,17.71
2018-06-10T05:17:44.732Z,17.79
2018-06-10T05:18:44.584Z,17.80
2018-06-10T05:19:44.495Z,17.87
2018-06-10T05:20:44.378Z,17.80
2018-06-10T05:21:44.295Z,17.86
2018-06-10T05:22:44.203Z,17.95
2018-06-10T05:23:44.147Z,18.02
2018-06-10T05:24:44.119Z,18.10
2018-06-10T05:25:43.940Z,18.04
2018-06-10T05:26:43.853Z,18.02
2018-06-10T05:27:43.767Z,18.07
2018-06-10T05:28:43.712Z,18.01
2018-06-10T05:29:43.593Z,18.16
2018-06-10T05:30:43.504Z,18.07
2018-06-10T05:31:43.511Z,18.05
2018-06-10T05:32:43.330Z,17.96
2018-06-10T05:33:43.273Z,17.96
2018-06-10T05:34:43.157Z,17.98
2018-06-10T05:35:43.073Z,18.07
2018-06-10T05:36:42.982Z,17.95
2018-06-10T05:37:42.893Z,17.95
2018-06-10T05:38:42.932Z,17.94
2018-06-10T05:39:42.723Z,17.98
2018-06-10T05:40:42.633Z,17.87
2018-06-10T05:41:42.547Z,17.79
2018-06-10T05:42:42.458Z,17.84
2018-06-10T05:43:42.400Z,17.76
2018-06-10T05:44:42.286Z,17.71
2018-06-10T05:45:42.292Z,17.71
2018-06-10T05:46:42.109Z,17.62
2018-06-10T05:47:42.023Z,17.77
2018-06-10T05:48:41.970Z,17.63
2018-06-10T05:49:41.847Z,17.74
2018-06-10T05:50:41.767Z,17.68
2018-06-10T05:51:41.674Z,17.73
2018-06-10T05:52:41.679Z,17.81
2018-06-10T05:53:41.529Z,17.83
2018-06-10T05:54:41.424Z,18.01
2018-06-10T05:55:41.332Z,18.04
2018-06-10T05:56:41.239Z,18.14
2018-06-10T05:57:41.153Z,18.20
2018-06-10T05:58:41.093Z,18.29
2018-06-10T05:59:41.067Z,18.46
2018-06-10T06:00:40.893Z,18.49
2018-06-10T06:01:40.803Z,18.62
2018-06-10T06:02:40.715Z,18.75
2018-06-10T06:03:40.668Z,18.76
2018-06-10T06:04:40.540Z,18.91
2018-06-10T06:05:40.453Z,19.05
2018-06-10T06:06:40.465Z,19.30
2018-06-10T06:07:40.283Z,19.31
2018-06-10T06:08:40.223Z,19.27
2018-06-10T06:09:40.111Z,19.30
2018-06-10T06:10:40.024Z,19.45
2018-06-10T06:11:39.933Z,19.39
2018-06-10T06:12:39.849Z,19.49
2018-06-10T06:13:39.796Z,19.43
2018-06-10T06:14:39.766Z,19.32
2018-06-10T06:15:39.591Z,19.34
2018-06-10T06:16:39.506Z,19.52
2018-06-10T06:17:39.416Z,19.35
2018-06-10T06:18:39.363Z,19.20
2018-06-10T06:19:39.261Z,19.02
2018-06-10T06:20:39.160Z,19.07
2018-06-10T06:21:39.164Z,19.06
2018-06-10T06:22:38.988Z,19.12
2018-06-10T06:23:38.908Z,19.17
2018-06-10T06:24:38.848Z,19.23
2018-06-10T06:25:38.731Z,19.27
2018-06-10T06:26:38.645Z,19.23
2018-06-10T06:27:38.559Z,19.07
2018-06-10T06:28:38.569Z,19.16
2018-06-10T06:29:38.419Z,19.13
2018-06-10T06:30:38.305Z,19.12
2018-06-10T06:31:38.217Z,19.23
2018-06-10T06:32:38.128Z,19.28
2018-06-10T06:33:38.044Z,19.16
2018-06-10T06:34:38.082Z,19.27
2018-06-10T06:35:37.876Z,19.34
2018-06-10T06:36:37.788Z,19.35
2018-06-10T06:37:37.700Z,19.35
2018-06-10T06:38:37.636Z,19.40
2018-06-10T06:39:37.563Z,19.49
2018-06-10T06:40:37.463Z,19.43
2018-06-10T06:41:37.357Z,19.55
2018-06-10T06:42:37.271Z,19.70
2018-06-10T06:43:37.188Z,19.87
2018-06-10T06:44:37.134Z,20.04
2018-06-10T06:45:37.022Z,20.25
2018-06-10T06:46:36.929Z,20.22
2018-06-10T06:47:36.847Z,20.16
2018-06-10T06:48:36.762Z,20.22
2018-06-10T06:49:36.706Z,20.33
2018-06-10T06:50:36.592Z,20.13
2018-06-10T06:51:36.504Z,20.20
2018-06-10T06:52:36.462Z,20.22
2018-06-10T06:53:36.335Z,20.37
2018-06-10T06:54:36.281Z,20.41
2018-06-10T06:55:36.164Z,20.58
2018-06-10T06:56:36.088Z,20.60
2018-06-10T06:57:35.998Z,20.93
2018-06-10T06:58:35.912Z,21.13
2018-06-10T06:59:35.856Z,21.48
2018-06-10T07:00:35.748Z,21.71
2018-06-10T07:01:35.658Z,21.67
2018-06-10T07:02:35.571Z,21.67
2018-06-10T07:03:35.492Z,21.26
2018-06-10T07:04:35.437Z,21.21
2018-06-10T07:05:35.320Z,21.38
2018-06-10T07:06:35.238Z,21.61
2018-06-10T07:07:35.155Z,21.77
2018-06-10T07:08:35.072Z,22.11
2018-06-10T07:09:35.019Z,22.29
2018-06-10T07:10:34.904Z,22.27
2018-06-10T07:11:34.821Z,22.26
2018-06-10T07:12:34.740Z,22.21
2018-06-10T07:13:34.655Z,22.23
2018-06-10T07:14:34.624Z,22.09
2018-06-10T07:15:34.490Z,22.11
2018-06-10T07:16:34.408Z,21.93
2018-06-10T07:17:34.328Z,21.86
2018-06-10T07:18:34.241Z,21.96
2018-06-10T07:19:34.194Z,21.99
2018-06-10T07:20:34.076Z,21.96
2018-06-10T07:21:33.994Z,21.98
2018-06-10T07:22:33.918Z,21.94
2018-06-10T07:23:33.860Z,22.08
2018-06-10T07:24:33.780Z,21.91
2018-06-10T07:25:33.661Z,22.09
2018-06-10T07:26:33.585Z,21.93
2018-06-10T07:27:33.500Z,22.05
2018-06-10T07:28:33.421Z,22.21
2018-06-10T07:29:33.367Z,22.14
2018-06-10T07:30:33.255Z,22.04
2018-06-10T07:31:33.171Z,21.98
2018-06-10T07:32:33.090Z,21.75
2018-06-10T07:33:33.081Z,21.67
2018-06-10T07:34:32.957Z,21.73
2018-06-10T07:35:32.840Z,21.61
2018-06-10T07:36:32.759Z,21.46
2018-06-10T07:37:32.675Z,21.64
2018-06-10T07:38:32.595Z,21.51
2018-06-10T07:39:32.548Z,21.59
2018-06-10T07:40:32.485Z,21.52
2018-06-10T07:41:32.345Z,21.59
2018-06-10T07:42:32.261Z,21.64
2018-06-10T07:43:32.181Z,21.67
2018-06-10T07:44:32.126Z,21.74
2018-06-10T07:45:32.016Z,21.74
2018-06-10T07:46:31.933Z,21.70
2018-06-10T07:47:31.852Z,21.67
2018-06-10T07:48:31.769Z,21.74
2018-06-10T07:49:31.717Z,21.73
2018-06-10T07:50:31.602Z,21.81
2018-06-10T07:51:31.618Z,21.82
2018-06-10T07:52:31.436Z,21.94
2018-06-10T07:53:31.355Z,21.67
2018-06-10T07:54:31.272Z,21.63
2018-06-10T07:55:31.219Z,21.38
2018-06-10T07:56:31.104Z,21.34
2018-06-10T07:57:31.026Z,21.61
2018-06-10T07:58:30.939Z,21.71
2018-06-10T07:59:30.861Z,21.86
2018-06-10T08:00:30.807Z,21.77
2018-06-10T08:01:30.690Z,21.63
2018-06-10T08:02:30.606Z,21.46
2018-06-10T08:03:30.525Z,21.38
2018-06-10T08:04:30.443Z,21.40
2018-06-10T08:05:30.509Z,21.42
2018-06-10T08:06:30.277Z,21.74
2018-06-10T08:07:30.191Z,21.85
2018-06-10T08:08:30.121Z,22.21
2018-06-10T08:09:30.032Z,22.31
2018-06-10T08:10:29.972Z,22.51
2018-06-10T08:11:29.861Z,22.45
2018-06-10T08:12:29.869Z,22.48
2018-06-10T08:13:29.698Z,22.57
2018-06-10T08:14:29.614Z,22.74
2018-06-10T08:15:29.560Z,22.75
2018-06-10T08:16:29.447Z,22.79
2018-06-10T08:17:29.362Z,22.99
2018-06-10T08:18:29.281Z,22.91
2018-06-10T08:19:29.291Z,22.89
2018-06-10T08:20:29.148Z,22.76
2018-06-10T08:21:29.036Z,22.99
2018-06-10T08:22:28.953Z,23.11
2018-06-10T08:23:28.870Z,22.91
2018-06-10T08:24:28.787Z,22.79
2018-06-10T08:25:28.738Z,22.49
2018-06-10T08:26:28.734Z,22.48
2018-06-10T08:27:28.542Z,22.67
2018-06-10T08:28:28.457Z,23.06
2018-06-10T08:29:28.376Z,23.19
2018-06-10T08:30:28.332Z,23.38
2018-06-10T08:31:28.211Z,23.50
2018-06-10T08:32:28.129Z,23.60
2018-06-10T08:33:28.145Z,23.77
2018-06-10T08:34:27.968Z,23.92
2018-06-10T08:35:27.916Z,23.86
2018-06-10T08:36:27.804Z,23.87
2018-06-10T08:37:27.773Z,23.86
2018-06-10T08:38:27.639Z,24.05
2018-06-10T08:39:27.556Z,23.59
2018-06-10T08:40:27.606Z,23.71
2018-06-10T08:41:27.404Z,23.64
2018-06-10T08:42:27.312Z,23.68
2018-06-10T08:43:27.235Z,23.71
2018-06-10T08:44:27.153Z,23.52
2018-06-10T08:45:27.102Z,23.62
2018-06-10T08:46:26.988Z,23.67
2018-06-10T08:47:26.999Z,23.69
2018-06-10T08:48:26.825Z,23.79
2018-06-10T08:49:26.744Z,23.84
2018-06-10T08:50:26.700Z,23.82
2018-06-10T08:51:26.583Z,23.84
2018-06-10T08:52:26.502Z,24.00
2018-06-10T08:53:26.417Z,24.21
2018-06-10T08:54:26.446Z,24.36
2018-06-10T08:55:26.291Z,24.44
2018-06-10T08:56:26.176Z,24.59
2018-06-10T08:57:26.098Z,24.56
2018-06-10T08:58:26.014Z,24.71
2018-06-10T08:59:25.931Z,24.84
2018-06-10T09:00:25.879Z,24.90
2018-06-10T09:01:25.862Z,24.53
2018-06-10T09:02:25.690Z,24.41
2018-06-10T09:03:25.608Z,24.34
2018-06-10T09:04:25.531Z,24.45
2018-06-10T09:05:25.476Z,24.64
2018-06-10T09:06:25.367Z,24.68
2018-06-10T09:07:25.286Z,24.82
2018-06-10T09:08:25.297Z,24.55
2018-06-10T09:09:25.123Z,24.75
2018-06-10T09:10:25.076Z,24.64
2018-06-10T09:11:24.963Z,24.64
2018-06-10T09:12:24.889Z,24.34
2018-06-10T09:13:24.803Z,24.23
2018-06-10T09:14:24.723Z,24.04
2018-06-10T09:15:24.765Z,24.18
2018-06-10T09:16:24.562Z,24.23
2018-06-10T09:17:24.479Z,24.23
2018-06-10T09:18:24.409Z,24.23
2018-06-10T09:19:24.321Z,24.09
2018-06-10T09:20:24.273Z,24.18
2018-06-10T09:21:24.279Z,24.12
2018-06-10T09:22:24.138Z,24.08
2018-06-10T09:23:23.996Z,24.29
2018-06-10T09:24:23.916Z,24.41
2018-06-10T09:25:23.836Z,24.56
2018-06-10T09:26:23.790Z,24.80
2018-06-10T09:27:23.675Z,24.92
2018-06-10T09:28:23.595Z,25.12
2018-06-10T09:29:23.513Z,25.23
2018-06-10T09:30:23.436Z,25.61
2018-06-10T09:31:23.383Z,25.71
2018-06-10T09:32:23.272Z,25.71
2018-06-10T09:33:23.188Z,25.97
2018-06-10T09:34:23.106Z,25.74
2018-06-10T09:35:23.051Z,25.78
2018-06-10T09:36:22.980Z,25.67
2018-06-10T09:37:22.866Z,25.69
2018-06-10T09:38:22.785Z,25.51
2018-06-10T09:39:22.712Z,25.60
2018-06-10T09:40:22.627Z,25.41
2018-06-10T09:41:22.579Z,25.46
2018-06-10T09:42:22.467Z,25.54
2018-06-10T09:43:22.390Z,25.48
2018-06-10T09:44:22.311Z,25.46
2018-06-10T09:45:22.228Z,25.44
2018-06-10T09:46:22.177Z,25.81
2018-06-10T09:47:22.068Z,25.78
2018-06-10T09:48:21.989Z,25.64
2018-06-10T09:49:21.910Z,25.67
2018-06-10T09:50:21.830Z,25.60
2018-06-10T09:51:21.781Z,25.61
2018-06-10T09:52:21.676Z,25.81
2018-06-10T09:53:21.592Z,26.09
2018-06-10T09:54:21.509Z,26.61
2018-06-10T09:55:21.519Z,26.91
2018-06-10T09:56:21.392Z,26.94
2018-06-10T09:57:21.277Z,26.93
2018-06-10T09:58:21.192Z,27.11
2018-06-10T09:59:21.113Z,27.09
2018-06-10T10:00:21.039Z,27.08
2018-06-10T10:01:20.991Z,26.88
2018-06-10T10:02:20.878Z,26.79
2018-06-10T10:03:20.800Z,26.49
2018-06-10T10:04:20.721Z,26.04
2018-06-10T10:05:20.648Z,25.76
2018-06-10T10:06:20.591Z,25.57
2018-06-10T10:07:20.482Z,25.54
2018-06-10T10:08:20.407Z,25.42
2018-06-10T10:09:20.325Z,25.16
2018-06-10T10:10:20.247Z,25.05
2018-06-10T10:11:20.197Z,25.04
2018-06-10T10:12:20.092Z,24.94
2018-06-10T10:13:20.010Z,24.70
2018-06-10T10:14:19.931Z,24.70
2018-06-10T10:15:19.857Z,24.51
2018-06-10T10:16:19.803Z,24.94
2018-06-10T10:17:19.689Z,25.60
2018-06-10T10:18:19.610Z,25.72
2018-06-10T10:19:19.530Z,26.28
2018-06-10T10:20:19.456Z,26.66
2018-06-10T10:21:19.404Z,27.03
2018-06-10T10:22:19.294Z,27.48
2018-06-10T10:23:19.216Z,27.86
2018-06-10T10:24:19.229Z,28.45
2018-06-10T10:25:19.056Z,28.52
2018-06-10T10:26:19.010Z,28.76
2018-06-10T10:27:18.900Z,29.03
2018-06-10T10:28:18.863Z,29.05
2018-06-10T10:29:18.742Z,28.76
2018-06-10T10:30:18.664Z,28.39
2018-06-10T10:31:18.620Z,28.06
2018-06-10T10:32:18.506Z,27.72
2018-06-10T10:33:18.427Z,27.46
2018-06-10T10:34:18.350Z,27.24
2018-06-10T10:35:18.275Z,27.68
2018-06-10T10:36:18.226Z,28.32
2018-06-10T10:37:18.119Z,28.74
2018-06-10T10:38:18.134Z,28.73
2018-06-10T10:39:17.963Z,28.98
2018-06-10T10:40:17.883Z,29.27
2018-06-10T10:41:17.838Z,29.48
2018-06-10T10:42:17.729Z,29.62
2018-06-10T10:43:17.648Z,29.54
2018-06-10T10:44:17.571Z,29.78
2018-06-10T10:45:17.585Z,29.27
2018-06-10T10:46:17.449Z,28.61
2018-06-10T10:47:17.342Z,28.13
2018-06-10T10:48:17.265Z,27.55
2018-06-10T10:49:17.186Z,27.27
2018-06-10T10:50:17.110Z,27.18
2018-06-10T10:51:17.065Z,26.54
2018-06-10T10:52:17.066Z,26.57
2018-06-10T10:53:16.875Z,25.98
2018-06-10T10:54:16.802Z,25.71
2018-06-10T10:55:16.726Z,25.57
2018-06-10T10:56:16.652Z,25.53
2018-06-10T10:57:16.597Z,25.36
2018-06-10T10:58:16.491Z,25.27
2018-06-10T10:59:16.518Z,25.19
2018-06-10T11:00:16.335Z,25.67
2018-06-10T11:01:16.261Z,26.78
2018-06-10T11:02:16.209Z,27.59
2018-06-10T11:03:16.103Z,28.17
2018-06-10T11:04:16.036Z,28.67
2018-06-10T11:05:15.943Z,29.08
2018-06-10T11:06:15.961Z,29.18
2018-06-10T11:07:15.818Z,29.41
2018-06-10T11:08:15.771Z,29.55
2018-06-10T11:09:15.633Z,29.89
2018-06-10T11:10:15.555Z,30.03
2018-06-10T11:11:15.480Z,29.41
2018-06-10T11:12:15.430Z,29.07
2018-06-10T11:13:15.411Z,28.42
2018-06-10T11:14:15.242Z,28.06
2018-06-10T11:15:15.173Z,27.68
2018-06-10T11:16:15.094Z,27.45
2018-06-10T11:17:15.054Z,27.55
2018-06-10T11:18:14.937Z,27.16
2018-06-10T11:19:14.858Z,26.97
2018-06-10T11:20:14.878Z,26.59
2018-06-10T11:21:14.703Z,26.50
2018-06-10T11:22:14.661Z,26.08
2018-06-10T11:23:14.552Z,26.39
2018-06-10T11:24:14.469Z,26.44
2018-06-10T11:25:14.395Z,26.53
2018-06-10T11:26:14.314Z,26.38
2018-06-10T11:27:14.364Z,26.47
2018-06-10T11:28:14.161Z,27.21
2018-06-10T11:29:14.102Z,27.09
2018-06-10T11:30:14.001Z,27.43
2018-06-10T11:31:13.926Z,28.18
2018-06-10T11:32:13.879Z,28.50
2018-06-10T11:33:13.768Z,28.98
2018-06-10T11:34:13.783Z,29.47
2018-06-10T11:35:13.611Z,29.91
2018-06-10T11:36:13.537Z,30.11
2018-06-10T11:37:13.489Z,30.01
2018-06-10T11:38:13.380Z,29.89
2018-06-10T11:39:13.305Z,29.85
2018-06-10T11:40:13.222Z,29.23
2018-06-10T11:41:13.238Z,29.00
2018-06-10T11:42:13.127Z,29.33
2018-06-10T11:43:12.992Z,28.74
2018-06-10T11:44:12.915Z,28.35
2018-06-10T11:45:12.838Z,27.87
2018-06-10T11:46:12.758Z,26.91
2018-06-10T11:47:12.716Z,26.69
2018-06-10T11:48:12.604Z,26.79
2018-06-10T11:49:12.527Z,26.69
2018-06-10T11:50:12.458Z,26.88
2018-06-10T11:51:12.375Z,27.39
2018-06-10T11:52:12.373Z,27.58
2018-06-10T11:53:12.220Z,27.33
2018-06-10T11:54:12.145Z,27.63
2018-06-10T11:55:12.066Z,28.05
2018-06-10T11:56:11.988Z,28.77
2018-06-10T11:57:11.945Z,28.35
2018-06-10T11:58:11.841Z,27.87
2018-06-10T11:59:11.759Z,27.81
2018-06-10T12:00:11.682Z,27.62
2018-06-10T12:01:11.606Z,27.62
2018-06-10T12:02:11.556Z,27.50
2018-06-10T12:03:11.449Z,27.16
2018-06-10T12:04:11.371Z,27.06
2018-06-10T12:05:11.317Z,26.94
2018-06-10T12:06:11.217Z,26.68
2018-06-10T12:07:11.171Z,26.47
2018-06-10T12:08:11.062Z,26.32
2018-06-10T12:09:10.982Z,26.53
2018-06-10T12:10:10.906Z,27.12
2018-06-10T12:11:10.828Z,27.28
2018-06-10T12:12:10.786Z,27.27
2018-06-10T12:13:10.669Z,27.43
2018-06-10T12:14:10.590Z,27.30
2018-06-10T12:15:10.518Z,27.95
2018-06-10T12:16:10.642Z,28.33
2018-06-10T12:17:10.392Z,28.64
2018-06-10T12:18:10.282Z,29.03
2018-06-10T12:19:10.202Z,29.29
2018-06-10T12:20:10.130Z,29.74
2018-06-10T12:21:10.049Z,29.79
2018-06-10T12:22:10.095Z,29.74
2018-06-10T12:23:09.892Z,29.51
2018-06-10T12:24:09.817Z,28.98
2018-06-10T12:25:09.738Z,28.61
2018-06-10T12:26:09.666Z,28.36
2018-06-10T12:27:09.588Z,27.98
2018-06-10T12:28:09.552Z,27.65
2018-06-10T12:29:09.524Z,27.48
2018-06-10T12:30:09.352Z,27.30
2018-06-10T12:31:09.281Z,27.24
2018-06-10T12:32:09.205Z,27.05
2018-06-10T12:33:09.158Z,26.97
2018-06-10T12:34:09.040Z,26.87
2018-06-10T12:35:08.975Z,26.79
2018-06-10T12:36:08.889Z,26.57
2018-06-10T12:37:08.814Z,26.46
2018-06-10T12:38:08.768Z,26.49
2018-06-10T12:39:08.656Z,26.73
2018-06-10T12:40:08.576Z,27.21
2018-06-10T12:41:08.494Z,27.68
2018-06-10T12:42:08.419Z,27.98
2018-06-10T12:43:08.372Z,28.39
2018-06-10T12:44:08.263Z,28.91
2018-06-10T12:45:08.184Z,29.18
2018-06-10T12:46:08.107Z,29.30
2018-06-10T12:47:08.029Z,29.35
2018-06-10T12:48:07.984Z,29.10
2018-06-10T12:49:07.998Z,29.27
2018-06-10T12:50:07.795Z,29.30
2018-06-10T12:51:07.716Z,29.48